createdAt,value
2023-01-10T00:02:39.368Z,3.45
2023-01-10T00:16:39.305Z,3.30
2023-01-10T00:30:39.305Z,3.20
2023-01-10T00:44:39.322Z,3.00
2023-01-10T00:58:39.379Z,2.50
2023-01-10T01:12:39.416Z,2.90
2023-01-10T01:26:39.422Z,2.70
2023-01-10T01:40:39.426Z,2.40
2023-01-10T01:54:39.444Z,2.10
2023-01-10T02:08:39.441Z,2.40
2023-01-10T02:22:39.466Z,2.10
2023-01-10T02:36:40.223Z,2.10
2023-01-10T02:50:40.210Z,1.90
2023-01-10T03:04:40.291Z,1.80
2023-01-10T03:18:40.251Z,1.70
2023-01-10T03:32:40.305Z,1.70
2023-01-10T03:46:40.345Z,1.40
2023-01-10T04:00:40.341Z,1.50
2023-01-10T04:14:40.363Z,1.40
2023-01-10T04:28:40.336Z,1.40
2023-01-10T04:42:40.355Z,1.45
2023-01-10T04:57:40.350Z,1.30
2023-01-10T05:11:40.355Z,1.20
2023-01-10T05:25:40.352Z,0.80
2023-01-10T05:39:40.653Z,1.10
2023-01-10T05:53:40.591Z,1.20
2023-01-10T06:08:40.620Z,1.50
2023-01-10T06:22:40.742Z,1.70
2023-01-10T06:36:40.740Z,9.40
2023-01-10T06:51:40.758Z,4.00
2023-01-10T07:06:40.752Z,3.30
2023-01-10T07:22:40.794Z,8.50
2023-01-10T07:37:40.791Z,2.60
2023-01-10T07:52:40.798Z,2.20
2023-01-10T08:07:40.828Z,2.30
2023-01-10T08:22:40.817Z,1.60
2023-01-10T08:37:40.810Z,2.00
2023-01-10T08:52:40.823Z,1.90
2023-01-10T09:08:40.800Z,3.00
2023-01-10T09:23:40.813Z,2.70
2023-01-10T09:38:40.819Z,9.10
2023-01-10T09:53:40.844Z,11.80
2023-01-10T10:08:40.842Z,10.40
2023-01-10T10:16:29.358Z,9.90
2023-01-10T10:31:29.310Z,7.80
2023-01-10T10:46:29.282Z,7.00
2023-01-10T11:01:29.364Z,5.90
2023-01-10T11:16:29.368Z,7.80
2023-01-10T11:31:29.333Z,5.55
2023-01-10T11:46:29.365Z,7.10
2023-01-10T12:01:29.409Z,6.90
2023-01-10T12:16:29.493Z,5.40
2023-01-10T12:31:29.453Z,4.30
2023-01-10T12:46:53.161Z,4.20
2023-01-10T12:52:27.337Z,3.90
2023-01-10T13:07:27.265Z,6.90
2023-01-10T13:22:27.278Z,4.70
2023-01-10T13:37:27.332Z,4.80
2023-01-10T13:52:27.329Z,4.40
2023-01-10T14:07:27.574Z,3.90
2023-01-10T14:22:27.848Z,3.70
2023-01-10T14:37:28.019Z,4.40
2023-01-10T14:52:28.008Z,4.20
2023-01-10T15:07:27.953Z,3.70
2023-01-10T15:22:28.043Z,3.30
2023-01-10T15:37:28.006Z,3.50
2023-01-10T15:52:28.385Z,3.00
2023-01-10T16:07:28.086Z,3.40
2023-01-10T16:22:28.117Z,5.60
2023-01-10T16:37:28.085Z,3.90
2023-01-10T16:51:28.118Z,2.55
2023-01-10T17:05:28.132Z,3.00
2023-01-10T17:19:28.141Z,3.10
2023-01-10T17:33:28.180Z,2.60
2023-01-10T17:47:28.322Z,3.00
2023-01-10T18:01:28.357Z,2.40
2023-01-10T18:15:28.304Z,2.80
2023-01-10T18:29:28.297Z,2.40
2023-01-10T18:44:28.362Z,3.40
2023-01-10T18:58:28.365Z,4.70
2023-01-10T19:12:28.599Z,4.00
2023-01-10T19:26:28.429Z,5.10
2023-01-10T19:40:28.420Z,6.20
2023-01-10T19:54:28.437Z,4.50
2023-01-10T20:08:28.476Z,4.00
2023-01-10T20:22:28.537Z,4.80
2023-01-10T20:36:28.484Z,5.10
2023-01-10T20:50:28.536Z,4.30
2023-01-10T21:04:28.640Z,4.10
2023-01-10T21:18:28.699Z,4.10
2023-01-10T21:32:28.741Z,3.80
2023-01-10T21:46:28.779Z,3.90
2023-01-10T22:00:28.862Z,5.70
2023-01-10T22:14:28.762Z,3.20
2023-01-10T22:28:28.784Z,3.20
2023-01-10T22:43:28.886Z,2.90
2023-01-10T22:57:32.871Z,3.90
2023-01-10T23:11:28.906Z,3.40
2023-01-10T23:25:28.896Z,2.80
2023-01-10T23:39:28.922Z,3.20
2023-01-10T23:53:28.925Z,3.30
